KRTN/RTN METAR and TAF weather

Enter ICAO airport designator
Station Type Date Time Source
KRTN METAR 2021/08/05 04:53 UTC NOAA

KRTN 050453Z AUTO 01005KT 10SM CLR 14/12 A3036 RMK AO2 SLP207 T01440122


Station Type Date Time Source
KRTN Decoded METAR 2021/08/05 04:53 UTC NOAA

Raton, Raton Municipal \ Crews Field Airport, NM, United States (KRTN) 36-44-31N 104-39-28W 1939M
Aug 05, 2021 - 12:53 AM EDT / 2021.08.05 0453 UTC
Wind: from the N (010 degrees) at 6 MPH (5 KT):0
Visibility: 10 mile(s):0
Sky conditions: clear
Temperature: 57.9 F (14.4 C)
Dew Point: 54.0 F (12.2 C)
Relative Humidity: 86%
Pressure (altimeter): 30.36 in. Hg (1028 hPa)
ob: KRTN 050453Z AUTO 01005KT 10SM CLR 14/12 A3036 RMK AO2 SLP207 T01440122
cycle: 5

Station Type Date Time Source
KRTN TAF UTC NOAA

Error!

Example: see airport list